Main page
METAR-TAF:

METAR-TAF

Airports :

Fujairah, United Arab Emirates

Fujairah International Airport

latitude: 25-06N, longitude: 056-20E, elevation: 28 m

Current weather observation

The report was made 54 minutes ago, at 08:00 UTC
Wind 22 kt from the West
Temperature 46°C
Humidity 10%
Pressure 996 hPa
Visibility: 8000 m

METAR: OMFJ 250800Z 28022KT 8000 NSC 46/07 Q0996 RMK A2944

Time: 12:54 (08:54 UTC)


TAF: missing

Weather observations and forecasts of more than 4000 airports (METAR and TAF reports).

The available stations are represented by yellow and red dots on the map.

Hover mouse over dot to see the name of the station.

Then click to see weather observations and forecasts.

To change the map : click on the green buttons with a black cross to zoom in, on the green button with a dash to zoom out, or on the green arrows for adjacent maps.


METAR-TAF: